sensor_id;sensor_type;location;lat;lon;timestamp;P1;durP1;ratioP1;P2;durP2;ratioP2
48859;SDS011;34679;51.436;-2.518;2022-10-31T00:00:30;37.92;;;3.80;;
48859;SDS011;34679;51.436;-2.518;2022-10-31T00:02:56;30.63;;;4.13;;
48859;SDS011;34679;51.436;-2.518;2022-10-31T00:05:22;29.73;;;3.88;;
48859;SDS011;34679;51.436;-2.518;2022-10-31T00:07:47;40.05;;;5.22;;
48859;SDS011;34679;51.436;-2.518;2022-10-31T00:10:17;40.22;;;4.78;;
48859;SDS011;34679;51.436;-2.518;2022-10-31T00:12:43;27.15;;;3.53;;
48859;SDS011;34679;51.436;-2.518;2022-10-31T00:15:08;35.80;;;5.05;;
48859;SDS011;34679;51.436;-2.518;2022-10-31T00:17:35;32.33;;;3.78;;
48859;SDS011;34679;51.436;-2.518;2022-10-31T00:20:01;30.55;;;3.40;;
48859;SDS011;34679;51.436;-2.518;2022-10-31T00:22:27;30.58;;;4.15;;
48859;SDS011;34679;51.436;-2.518;2022-10-31T00:24:52;31.45;;;4.05;;
48859;SDS011;34679;51.436;-2.518;2022-10-31T00:27:18;31.27;;;3.42;;
48859;SDS011;34679;51.436;-2.518;2022-10-31T00:29:44;38.72;;;3.90;;
48859;SDS011;34679;51.436;-2.518;2022-10-31T00:32:09;35.67;;;4.13;;
48859;SDS011;34679;51.436;-2.518;2022-10-31T00:34:35;39.38;;;3.22;;
48859;SDS011;34679;51.436;-2.518;2022-10-31T00:37:00;28.85;;;4.88;;
48859;SDS011;34679;51.436;-2.518;2022-10-31T00:39:26;28.58;;;3.55;;
48859;SDS011;34679;51.436;-2.518;2022-10-31T00:41:52;37.53;;;4.80;;
48859;SDS011;34679;51.436;-2.518;2022-10-31T00:44:17;33.13;;;5.45;;
48859;SDS011;34679;51.436;-2.518;2022-10-31T00:46:43;23.98;;;3.08;;
48859;SDS011;34679;51.436;-2.518;2022-10-31T00:49:09;26.75;;;3.72;;
48859;SDS011;34679;51.436;-2.518;2022-10-31T00:51:34;35.70;;;4.88;;
48859;SDS011;34679;51.436;-2.518;2022-10-31T00:54:00;35.80;;;4.40;;
48859;SDS011;34679;51.436;-2.518;2022-10-31T00:56:25;24.52;;;2.80;;
48859;SDS011;34679;51.436;-2.518;2022-10-31T00:58:51;28.35;;;3.78;;
48859;SDS011;34679;51.436;-2.518;2022-10-31T01:01:17;37.40;;;4.15;;
48859;SDS011;34679;51.436;-2.518;2022-10-31T01:03:42;27.45;;;3.00;;
48859;SDS011;34679;51.436;-2.518;2022-10-31T01:06:09;30.63;;;3.15;;
48859;SDS011;34679;51.436;-2.518;2022-10-31T01:08:36;28.58;;;3.88;;
48859;SDS011;34679;51.436;-2.518;2022-10-31T01:11:07;23.75;;;3.08;;
48859;SDS011;34679;51.436;-2.518;2022-10-31T01:13:37;25.35;;;3.67;;
48859;SDS011;34679;51.436;-2.518;2022-10-31T01:16:03;37.15;;;4.90;;
48859;SDS011;34679;51.436;-2.518;2022-10-31T01:18:31;27.90;;;4.22;;
48859;SDS011;34679;51.436;-2.518;2022-10-31T01:21:16;28.50;;;3.30;;
48859;SDS011;34679;51.436;-2.518;2022-10-31T01:23:44;26.27;;;3.40;;
48859;SDS011;34679;51.436;-2.518;2022-10-31T01:26:14;25.88;;;3.13;;
48859;SDS011;34679;51.436;-2.518;2022-10-31T01:28:46;30.20;;;2.63;;
48859;SDS011;34679;51.436;-2.518;2022-10-31T01:31:13;29.63;;;3.20;;
48859;SDS011;34679;51.436;-2.518;2022-10-31T01:33:40;29.52;;;3.35;;
48859;SDS011;34679;51.436;-2.518;2022-10-31T01:36:15;23.35;;;3.50;;
48859;SDS011;34679;51.436;-2.518;2022-10-31T01:38:48;22.92;;;3.33;;
48859;SDS011;34679;51.436;-2.518;2022-10-31T01:41:16;22.13;;;3.58;;
48859;SDS011;34679;51.436;-2.518;2022-10-31T01:46:29;28.17;;;4.30;;
48859;SDS011;34679;51.436;-2.518;2022-10-31T01:48:59;26.80;;;3.38;;
48859;SDS011;34679;51.436;-2.518;2022-10-31T01:51:28;21.25;;;4.10;;
48859;SDS011;34679;51.436;-2.518;2022-10-31T01:54:03;27.25;;;2.50;;
48859;SDS011;34679;51.436;-2.518;2022-10-31T01:56:31;29.55;;;4.43;;
48859;SDS011;34679;51.436;-2.518;2022-10-31T01:59:02;27.50;;;4.38;;
48859;SDS011;34679;51.436;-2.518;2022-10-31T02:01:32;21.48;;;2.58;;
48859;SDS011;34679;51.436;-2.518;2022-10-31T02:03:58;29.77;;;3.53;;
48859;SDS011;34679;51.436;-2.518;2022-10-31T02:06:30;21.42;;;2.40;;
48859;SDS011;34679;51.436;-2.518;2022-10-31T02:08:58;22.17;;;3.40;;
48859;SDS011;34679;51.436;-2.518;2022-10-31T02:11:25;39.28;;;4.57;;
48859;SDS011;34679;51.436;-2.518;2022-10-31T02:13:53;26.90;;;3.28;;
48859;SDS011;34679;51.436;-2.518;2022-10-31T02:16:19;33.33;;;3.35;;
48859;SDS011;34679;51.436;-2.518;2022-10-31T02:18:45;26.30;;;3.53;;
48859;SDS011;34679;51.436;-2.518;2022-10-31T02:32:21;22.63;;;2.65;;
48859;SDS011;34679;51.436;-2.518;2022-10-31T02:34:58;21.80;;;2.80;;
48859;SDS011;34679;51.436;-2.518;2022-10-31T02:40:18;23.83;;;2.63;;
48859;SDS011;34679;51.436;-2.518;2022-10-31T02:48:24;25.42;;;2.40;;
48859;SDS011;34679;51.436;-2.518;2022-10-31T02:50:59;20.20;;;2.83;;
48859;SDS011;34679;51.436;-2.518;2022-10-31T02:53:31;32.92;;;3.38;;
48859;SDS011;34679;51.436;-2.518;2022-10-31T02:56:00;26.80;;;3.70;;
48859;SDS011;34679;51.436;-2.518;2022-10-31T02:58:31;30.17;;;3.20;;
48859;SDS011;34679;51.436;-2.518;2022-10-31T03:06:33;36.25;;;3.70;;
48859;SDS011;34679;51.436;-2.518;2022-10-31T03:11:57;31.77;;;3.05;;
48859;SDS011;34679;51.436;-2.518;2022-10-31T03:17:20;26.23;;;2.90;;
48859;SDS011;34679;51.436;-2.518;2022-10-31T03:19:51;35.35;;;3.05;;
48859;SDS011;34679;51.436;-2.518;2022-10-31T03:22:22;27.48;;;2.65;;
48859;SDS011;34679;51.436;-2.518;2022-10-31T03:24:51;17.80;;;2.45;;
48859;SDS011;34679;51.436;-2.518;2022-10-31T03:27:20;38.65;;;3.30;;
48859;SDS011;34679;51.436;-2.518;2022-10-31T03:29:50;39.47;;;4.38;;
48859;SDS011;34679;51.436;-2.518;2022-10-31T03:32:29;23.38;;;3.03;;
48859;SDS011;34679;51.436;-2.518;2022-10-31T03:35:00;20.40;;;3.33;;
48859;SDS011;34679;51.436;-2.518;2022-10-31T03:37:29;28.33;;;3.08;;
48859;SDS011;34679;51.436;-2.518;2022-10-31T03:39:58;31.40;;;3.35;;
48859;SDS011;34679;51.436;-2.518;2022-10-31T03:42:30;32.83;;;3.30;;
48859;SDS011;34679;51.436;-2.518;2022-10-31T03:45:00;22.70;;;2.55;;
48859;SDS011;34679;51.436;-2.518;2022-10-31T03:47:36;27.48;;;3.08;;
48859;SDS011;34679;51.436;-2.518;2022-10-31T03:50:03;29.02;;;3.33;;
48859;SDS011;34679;51.436;-2.518;2022-10-31T03:55:21;25.85;;;3.58;;
48859;SDS011;34679;51.436;-2.518;2022-10-31T03:57:59;19.35;;;3.22;;
48859;SDS011;34679;51.436;-2.518;2022-10-31T04:00:30;24.10;;;3.47;;
48859;SDS011;34679;51.436;-2.518;2022-10-31T04:08:21;22.85;;;2.88;;
48859;SDS011;34679;51.436;-2.518;2022-10-31T04:10:51;24.30;;;2.60;;
48859;SDS011;34679;51.436;-2.518;2022-10-31T04:13:21;41.20;;;4.38;;
48859;SDS011;34679;51.436;-2.518;2022-10-31T04:15:51;32.97;;;3.30;;
48859;SDS011;34679;51.436;-2.518;2022-10-31T04:18:19;38.50;;;3.70;;
48859;SDS011;34679;51.436;-2.518;2022-10-31T04:20:44;37.05;;;3.22;;
48859;SDS011;34679;51.436;-2.518;2022-10-31T04:23:24;27.60;;;3.50;;
48859;SDS011;34679;51.436;-2.518;2022-10-31T04:25:51;29.85;;;3.95;;
48859;SDS011;34679;51.436;-2.518;2022-10-31T04:28:17;28.60;;;3.47;;
48859;SDS011;34679;51.436;-2.518;2022-10-31T04:30:43;36.80;;;3.72;;
48859;SDS011;34679;51.436;-2.518;2022-10-31T04:33:09;28.48;;;3.60;;
48859;SDS011;34679;51.436;-2.518;2022-10-31T04:35:34;22.67;;;2.60;;
48859;SDS011;34679;51.436;-2.518;2022-10-31T04:38:00;22.42;;;2.72;;
48859;SDS011;34679;51.436;-2.518;2022-10-31T04:40:26;26.73;;;3.17;;
48859;SDS011;34679;51.436;-2.518;2022-10-31T04:42:51;30.05;;;3.25;;
48859;SDS011;34679;51.436;-2.518;2022-10-31T04:45:17;25.98;;;2.65;;
48859;SDS011;34679;51.436;-2.518;2022-10-31T04:47:43;38.25;;;4.55;;
48859;SDS011;34679;51.436;-2.518;2022-10-31T04:50:08;32.30;;;4.85;;
48859;SDS011;34679;51.436;-2.518;2022-10-31T04:52:41;22.25;;;3.03;;
48859;SDS011;34679;51.436;-2.518;2022-10-31T04:55:07;19.45;;;2.35;;
48859;SDS011;34679;51.436;-2.518;2022-10-31T04:57:43;27.65;;;2.97;;
48859;SDS011;34679;51.436;-2.518;2022-10-31T05:00:11;29.35;;;3.10;;
48859;SDS011;34679;51.436;-2.518;2022-10-31T05:02:44;26.13;;;3.95;;
48859;SDS011;34679;51.436;-2.518;2022-10-31T05:05:14;25.33;;;2.85;;
48859;SDS011;34679;51.436;-2.518;2022-10-31T05:07:42;27.45;;;3.08;;
48859;SDS011;34679;51.436;-2.518;2022-10-31T05:10:10;19.20;;;3.25;;
48859;SDS011;34679;51.436;-2.518;2022-10-31T05:12:37;30.70;;;3.00;;
48859;SDS011;34679;51.436;-2.518;2022-10-31T05:15:04;23.40;;;2.72;;
48859;SDS011;34679;51.436;-2.518;2022-10-31T05:17:31;28.45;;;4.45;;
48859;SDS011;34679;51.436;-2.518;2022-10-31T05:19:57;32.10;;;3.53;;
48859;SDS011;34679;51.436;-2.518;2022-10-31T05:22:22;31.40;;;4.35;;
48859;SDS011;34679;51.436;-2.518;2022-10-31T05:24:48;29.77;;;2.80;;
48859;SDS011;34679;51.436;-2.518;2022-10-31T05:27:13;23.80;;;3.33;;
48859;SDS011;34679;51.436;-2.518;2022-10-31T05:29:39;25.38;;;3.05;;
48859;SDS011;34679;51.436;-2.518;2022-10-31T05:32:05;26.27;;;3.00;;
48859;SDS011;34679;51.436;-2.518;2022-10-31T05:34:30;25.42;;;2.55;;
48859;SDS011;34679;51.436;-2.518;2022-10-31T05:36:56;26.77;;;3.38;;
48859;SDS011;34679;51.436;-2.518;2022-10-31T05:39:22;24.73;;;2.75;;
48859;SDS011;34679;51.436;-2.518;2022-10-31T05:41:47;33.42;;;2.92;;
48859;SDS011;34679;51.436;-2.518;2022-10-31T05:44:13;29.15;;;3.53;;
48859;SDS011;34679;51.436;-2.518;2022-10-31T05:46:39;29.83;;;2.75;;
48859;SDS011;34679;51.436;-2.518;2022-10-31T05:49:04;27.30;;;2.88;;
48859;SDS011;34679;51.436;-2.518;2022-10-31T05:51:30;32.55;;;3.80;;
48859;SDS011;34679;51.436;-2.518;2022-10-31T05:53:55;29.52;;;3.08;;
48859;SDS011;34679;51.436;-2.518;2022-10-31T05:56:21;25.95;;;3.05;;
48859;SDS011;34679;51.436;-2.518;2022-10-31T05:58:47;27.27;;;3.88;;
48859;SDS011;34679;51.436;-2.518;2022-10-31T06:01:12;32.30;;;3.45;;
48859;SDS011;34679;51.436;-2.518;2022-10-31T06:03:38;23.55;;;2.92;;
48859;SDS011;34679;51.436;-2.518;2022-10-31T06:06:04;21.45;;;2.90;;
48859;SDS011;34679;51.436;-2.518;2022-10-31T06:08:29;27.73;;;4.88;;
48859;SDS011;34679;51.436;-2.518;2022-10-31T06:10:55;42.03;;;5.38;;
48859;SDS011;34679;51.436;-2.518;2022-10-31T06:13:21;22.55;;;2.88;;
48859;SDS011;34679;51.436;-2.518;2022-10-31T06:15:46;32.92;;;4.35;;
48859;SDS011;34679;51.436;-2.518;2022-10-31T06:18:12;24.92;;;2.67;;
48859;SDS011;34679;51.436;-2.518;2022-10-31T06:20:38;31.35;;;4.15;;
48859;SDS011;34679;51.436;-2.518;2022-10-31T06:23:04;37.70;;;4.22;;
48859;SDS011;34679;51.436;-2.518;2022-10-31T06:25:30;27.75;;;2.67;;
48859;SDS011;34679;51.436;-2.518;2022-10-31T06:27:56;24.92;;;3.20;;
48859;SDS011;34679;51.436;-2.518;2022-10-31T06:30:21;29.63;;;2.85;;
48859;SDS011;34679;51.436;-2.518;2022-10-31T06:32:47;26.80;;;3.05;;
48859;SDS011;34679;51.436;-2.518;2022-10-31T06:35:14;25.27;;;2.95;;
48859;SDS011;34679;51.436;-2.518;2022-10-31T06:37:40;21.85;;;3.22;;
48859;SDS011;34679;51.436;-2.518;2022-10-31T06:40:06;25.17;;;3.97;;
48859;SDS011;34679;51.436;-2.518;2022-10-31T06:42:32;29.45;;;3.25;;
48859;SDS011;34679;51.436;-2.518;2022-10-31T06:44:57;24.08;;;3.80;;
48859;SDS011;34679;51.436;-2.518;2022-10-31T06:47:23;32.13;;;3.35;;
48859;SDS011;34679;51.436;-2.518;2022-10-31T06:49:49;40.35;;;4.05;;
48859;SDS011;34679;51.436;-2.518;2022-10-31T06:52:14;28.73;;;3.03;;
48859;SDS011;34679;51.436;-2.518;2022-10-31T06:54:40;31.35;;;3.40;;
48859;SDS011;34679;51.436;-2.518;2022-10-31T06:57:06;27.25;;;3.08;;
48859;SDS011;34679;51.436;-2.518;2022-10-31T06:59:32;35.22;;;3.72;;
48859;SDS011;34679;51.436;-2.518;2022-10-31T07:01:57;28.85;;;3.60;;
48859;SDS011;34679;51.436;-2.518;2022-10-31T07:04:23;31.15;;;4.28;;
48859;SDS011;34679;51.436;-2.518;2022-10-31T07:06:52;28.85;;;3.22;;
48859;SDS011;34679;51.436;-2.518;2022-10-31T07:09:18;34.47;;;4.63;;
48859;SDS011;34679;51.436;-2.518;2022-10-31T07:11:43;31.60;;;4.32;;
48859;SDS011;34679;51.436;-2.518;2022-10-31T07:14:09;33.58;;;2.97;;
48859;SDS011;34679;51.436;-2.518;2022-10-31T07:16:35;24.33;;;3.00;;
48859;SDS011;34679;51.436;-2.518;2022-10-31T07:19:00;27.05;;;3.63;;
48859;SDS011;34679;51.436;-2.518;2022-10-31T07:21:26;30.05;;;4.15;;
48859;SDS011;34679;51.436;-2.518;2022-10-31T07:23:51;28.83;;;3.03;;
48859;SDS011;34679;51.436;-2.518;2022-10-31T07:26:17;27.00;;;3.50;;
48859;SDS011;34679;51.436;-2.518;2022-10-31T07:28:43;25.10;;;2.72;;
48859;SDS011;34679;51.436;-2.518;2022-10-31T07:31:10;30.55;;;3.70;;
48859;SDS011;34679;51.436;-2.518;2022-10-31T07:33:36;27.73;;;2.67;;
48859;SDS011;34679;51.436;-2.518;2022-10-31T07:36:02;25.60;;;3.85;;
48859;SDS011;34679;51.436;-2.518;2022-10-31T07:38:27;26.02;;;3.25;;
48859;SDS011;34679;51.436;-2.518;2022-10-31T07:40:53;39.90;;;4.15;;
48859;SDS011;34679;51.436;-2.518;2022-10-31T07:43:19;23.50;;;3.10;;
48859;SDS011;34679;51.436;-2.518;2022-10-31T07:45:48;30.92;;;4.10;;
48859;SDS011;34679;51.436;-2.518;2022-10-31T07:48:17;22.50;;;2.53;;
48859;SDS011;34679;51.436;-2.518;2022-10-31T07:50:44;18.55;;;2.78;;
48859;SDS011;34679;51.436;-2.518;2022-10-31T07:53:11;17.65;;;2.75;;
48859;SDS011;34679;51.436;-2.518;2022-10-31T07:55:38;21.42;;;2.78;;
48859;SDS011;34679;51.436;-2.518;2022-10-31T07:58:08;18.77;;;3.20;;
48859;SDS011;34679;51.436;-2.518;2022-10-31T08:00:34;14.18;;;1.77;;
48859;SDS011;34679;51.436;-2.518;2022-10-31T08:03:05;16.10;;;2.13;;
48859;SDS011;34679;51.436;-2.518;2022-10-31T08:05:32;21.75;;;2.97;;
48859;SDS011;34679;51.436;-2.518;2022-10-31T08:07:59;27.67;;;3.35;;
48859;SDS011;34679;51.436;-2.518;2022-10-31T08:10:25;25.00;;;2.83;;
48859;SDS011;34679;51.436;-2.518;2022-10-31T08:12:58;12.23;;;2.20;;
48859;SDS011;34679;51.436;-2.518;2022-10-31T08:15:26;15.32;;;3.50;;
48859;SDS011;34679;51.436;-2.518;2022-10-31T08:17:52;18.88;;;2.95;;
48859;SDS011;34679;51.436;-2.518;2022-10-31T08:20:19;11.05;;;2.63;;
48859;SDS011;34679;51.436;-2.518;2022-10-31T08:22:58;20.75;;;2.35;;
48859;SDS011;34679;51.436;-2.518;2022-10-31T08:25:26;13.20;;;2.42;;
48859;SDS011;34679;51.436;-2.518;2022-10-31T08:27:53;20.35;;;2.92;;
48859;SDS011;34679;51.436;-2.518;2022-10-31T08:30:20;20.70;;;3.38;;
48859;SDS011;34679;51.436;-2.518;2022-10-31T08:32:47;13.50;;;2.63;;
48859;SDS011;34679;51.436;-2.518;2022-10-31T08:35:35;14.88;;;3.20;;
48859;SDS011;34679;51.436;-2.518;2022-10-31T08:38:02;18.88;;;3.17;;
48859;SDS011;34679;51.436;-2.518;2022-10-31T08:40:29;30.50;;;3.88;;
48859;SDS011;34679;51.436;-2.518;2022-10-31T08:42:59;16.70;;;2.85;;
48859;SDS011;34679;51.436;-2.518;2022-10-31T08:45:27;17.20;;;2.42;;
48859;SDS011;34679;51.436;-2.518;2022-10-31T08:48:00;15.10;;;2.03;;
48859;SDS011;34679;51.436;-2.518;2022-10-31T08:50:28;16.67;;;2.92;;
48859;SDS011;34679;51.436;-2.518;2022-10-31T08:52:59;13.77;;;2.35;;
48859;SDS011;34679;51.436;-2.518;2022-10-31T08:55:26;17.92;;;3.05;;
48859;SDS011;34679;51.436;-2.518;2022-10-31T08:57:55;12.57;;;2.33;;
48859;SDS011;34679;51.436;-2.518;2022-10-31T09:00:24;16.27;;;2.77;;
48859;SDS011;34679;51.436;-2.518;2022-10-31T09:02:57;16.17;;;2.13;;
48859;SDS011;34679;51.436;-2.518;2022-10-31T09:05:23;16.25;;;3.13;;
48859;SDS011;34679;51.436;-2.518;2022-10-31T09:07:49;12.07;;;2.65;;
48859;SDS011;34679;51.436;-2.518;2022-10-31T09:10:15;22.38;;;3.90;;
48859;SDS011;34679;51.436;-2.518;2022-10-31T09:12:41;15.40;;;3.42;;
48859;SDS011;34679;51.436;-2.518;2022-10-31T09:15:07;13.02;;;2.13;;
48859;SDS011;34679;51.436;-2.518;2022-10-31T09:17:33;15.48;;;2.45;;
48859;SDS011;34679;51.436;-2.518;2022-10-31T09:19:59;22.92;;;3.20;;
48859;SDS011;34679;51.436;-2.518;2022-10-31T09:22:24;31.58;;;4.03;;
48859;SDS011;34679;51.436;-2.518;2022-10-31T09:24:50;24.88;;;4.18;;
48859;SDS011;34679;51.436;-2.518;2022-10-31T09:27:16;19.55;;;2.95;;
48859;SDS011;34679;51.436;-2.518;2022-10-31T09:29:41;19.88;;;2.58;;
48859;SDS011;34679;51.436;-2.518;2022-10-31T09:32:07;21.67;;;3.65;;
48859;SDS011;34679;51.436;-2.518;2022-10-31T09:34:32;23.88;;;2.60;;
48859;SDS011;34679;51.436;-2.518;2022-10-31T09:36:58;25.38;;;2.97;;
48859;SDS011;34679;51.436;-2.518;2022-10-31T09:39:24;16.80;;;2.40;;
48859;SDS011;34679;51.436;-2.518;2022-10-31T09:42:02;23.35;;;3.13;;
48859;SDS011;34679;51.436;-2.518;2022-10-31T09:47:17;16.83;;;2.58;;
48859;SDS011;34679;51.436;-2.518;2022-10-31T09:50:48;15.80;;;2.55;;
48859;SDS011;34679;51.436;-2.518;2022-10-31T09:52:44;21.23;;;2.67;;
48859;SDS011;34679;51.436;-2.518;2022-10-31T09:55:41;11.98;;;1.98;;
48859;SDS011;34679;51.436;-2.518;2022-10-31T09:58:16;14.10;;;1.92;;
48859;SDS011;34679;51.436;-2.518;2022-10-31T10:00:46;17.02;;;2.45;;
48859;SDS011;34679;51.436;-2.518;2022-10-31T10:03:18;12.20;;;1.85;;
48859;SDS011;34679;51.436;-2.518;2022-10-31T10:08:27;21.65;;;3.50;;
48859;SDS011;34679;51.436;-2.518;2022-10-31T10:19:28;15.88;;;2.10;;
48859;SDS011;34679;51.436;-2.518;2022-10-31T10:30:41;15.35;;;2.20;;
48859;SDS011;34679;51.436;-2.518;2022-10-31T10:33:24;18.58;;;2.80;;
48859;SDS011;34679;51.436;-2.518;2022-10-31T10:35:57;18.38;;;2.08;;
48859;SDS011;34679;51.436;-2.518;2022-10-31T10:41:21;14.35;;;2.53;;
48859;SDS011;34679;51.436;-2.518;2022-10-31T10:43:51;14.90;;;1.50;;
48859;SDS011;34679;51.436;-2.518;2022-10-31T10:54:33;11.23;;;2.67;;
48859;SDS011;34679;51.436;-2.518;2022-10-31T10:57:08;11.73;;;1.95;;
48859;SDS011;34679;51.436;-2.518;2022-10-31T10:59:46;7.50;;;1.60;;
48859;SDS011;34679;51.436;-2.518;2022-10-31T11:02:19;8.65;;;2.30;;
48859;SDS011;34679;51.436;-2.518;2022-10-31T11:04:55;11.90;;;1.98;;
48859;SDS011;34679;51.436;-2.518;2022-10-31T11:07:22;12.07;;;2.45;;
48859;SDS011;34679;51.436;-2.518;2022-10-31T11:09:48;12.10;;;2.25;;
48859;SDS011;34679;51.436;-2.518;2022-10-31T11:12:19;17.65;;;1.95;;
48859;SDS011;34679;51.436;-2.518;2022-10-31T11:14:53;14.82;;;3.33;;
48859;SDS011;34679;51.436;-2.518;2022-10-31T11:22:42;13.93;;;1.95;;
48859;SDS011;34679;51.436;-2.518;2022-10-31T11:27:45;9.23;;;1.23;;
48859;SDS011;34679;51.436;-2.518;2022-10-31T11:30:12;9.52;;;1.60;;
48859;SDS011;34679;51.436;-2.518;2022-10-31T11:32:43;9.65;;;1.98;;
48859;SDS011;34679;51.436;-2.518;2022-10-31T11:35:14;7.68;;;1.95;;
48859;SDS011;34679;51.436;-2.518;2022-10-31T11:37:44;16.13;;;2.05;;
48859;SDS011;34679;51.436;-2.518;2022-10-31T11:40:19;13.75;;;1.98;;
48859;SDS011;34679;51.436;-2.518;2022-10-31T11:42:47;7.35;;;1.35;;
48859;SDS011;34679;51.436;-2.518;2022-10-31T11:45:16;10.00;;;1.58;;
48859;SDS011;34679;51.436;-2.518;2022-10-31T11:47:49;11.40;;;1.45;;
48859;SDS011;34679;51.436;-2.518;2022-10-31T11:50:21;10.52;;;1.98;;
48859;SDS011;34679;51.436;-2.518;2022-10-31T11:52:50;5.07;;;1.30;;
48859;SDS011;34679;51.436;-2.518;2022-10-31T11:55:36;9.50;;;1.50;;
48859;SDS011;34679;51.436;-2.518;2022-10-31T11:58:04;10.77;;;1.98;;
48859;SDS011;34679;51.436;-2.518;2022-10-31T12:00:48;6.80;;;1.42;;
48859;SDS011;34679;51.436;-2.518;2022-10-31T12:05:47;9.35;;;1.38;;
48859;SDS011;34679;51.436;-2.518;2022-10-31T12:08:17;7.57;;;1.70;;
48859;SDS011;34679;51.436;-2.518;2022-10-31T12:13:33;5.28;;;1.40;;
48859;SDS011;34679;51.436;-2.518;2022-10-31T12:24:21;6.38;;;1.83;;
48859;SDS011;34679;51.436;-2.518;2022-10-31T12:26:54;8.95;;;1.48;;
48859;SDS011;34679;51.436;-2.518;2022-10-31T12:32:46;8.00;;;1.67;;
48859;SDS011;34679;51.436;-2.518;2022-10-31T12:52:43;3.30;;;0.65;;
48859;SDS011;34679;51.436;-2.518;2022-10-31T13:00:48;6.57;;;0.80;;
48859;SDS011;34679;51.436;-2.518;2022-10-31T13:03:25;4.82;;;1.63;;
48859;SDS011;34679;51.436;-2.518;2022-10-31T13:05:56;5.18;;;1.20;;
48859;SDS011;34679;51.436;-2.518;2022-10-31T13:08:38;10.45;;;1.50;;
48859;SDS011;34679;51.436;-2.518;2022-10-31T13:11:19;1.88;;;0.80;;
48859;SDS011;34679;51.436;-2.518;2022-10-31T13:13:52;8.98;;;1.38;;
48859;SDS011;34679;51.436;-2.518;2022-10-31T13:16:20;4.95;;;1.17;;
48859;SDS011;34679;51.436;-2.518;2022-10-31T13:18:55;9.77;;;1.73;;
48859;SDS011;34679;51.436;-2.518;2022-10-31T13:24:33;4.65;;;2.05;;
48859;SDS011;34679;51.436;-2.518;2022-10-31T13:27:26;7.53;;;1.02;;
48859;SDS011;34679;51.436;-2.518;2022-10-31T13:30:19;8.20;;;1.05;;
48859;SDS011;34679;51.436;-2.518;2022-10-31T13:38:29;5.47;;;1.50;;
48859;SDS011;34679;51.436;-2.518;2022-10-31T13:41:11;3.70;;;1.15;;
48859;SDS011;34679;51.436;-2.518;2022-10-31T13:49:02;6.07;;;1.20;;
48859;SDS011;34679;51.436;-2.518;2022-10-31T13:51:33;9.60;;;1.30;;
48859;SDS011;34679;51.436;-2.518;2022-10-31T13:54:01;6.53;;;1.10;;
48859;SDS011;34679;51.436;-2.518;2022-10-31T13:56:44;7.72;;;1.35;;
48859;SDS011;34679;51.436;-2.518;2022-10-31T13:59:16;6.05;;;1.30;;
48859;SDS011;34679;51.436;-2.518;2022-10-31T14:01:46;10.32;;;1.40;;
48859;SDS011;34679;51.436;-2.518;2022-10-31T14:04:25;4.25;;;0.75;;
48859;SDS011;34679;51.436;-2.518;2022-10-31T14:09:35;7.97;;;1.23;;
48859;SDS011;34679;51.436;-2.518;2022-10-31T14:12:25;4.07;;;1.70;;
48859;SDS011;34679;51.436;-2.518;2022-10-31T14:14:53;7.03;;;1.30;;
48859;SDS011;34679;51.436;-2.518;2022-10-31T14:17:25;5.03;;;0.98;;
48859;SDS011;34679;51.436;-2.518;2022-10-31T14:22:37;5.60;;;1.23;;
48859;SDS011;34679;51.436;-2.518;2022-10-31T14:27:57;4.57;;;1.02;;
48859;SDS011;34679;51.436;-2.518;2022-10-31T14:30:26;10.73;;;1.08;;
48859;SDS011;34679;51.436;-2.518;2022-10-31T14:32:54;8.65;;;1.17;;
48859;SDS011;34679;51.436;-2.518;2022-10-31T14:41:19;5.38;;;0.93;;
48859;SDS011;34679;51.436;-2.518;2022-10-31T14:49:50;5.47;;;1.55;;
48859;SDS011;34679;51.436;-2.518;2022-10-31T14:52:36;6.68;;;1.05;;
48859;SDS011;34679;51.436;-2.518;2022-10-31T14:55:04;3.53;;;1.00;;
48859;SDS011;34679;51.436;-2.518;2022-10-31T14:57:33;6.85;;;1.30;;
48859;SDS011;34679;51.436;-2.518;2022-10-31T15:00:04;7.35;;;1.50;;
48859;SDS011;34679;51.436;-2.518;2022-10-31T15:02:33;10.35;;;1.67;;
48859;SDS011;34679;51.436;-2.518;2022-10-31T15:05:23;5.32;;;1.55;;
48859;SDS011;34679;51.436;-2.518;2022-10-31T15:07:54;5.95;;;1.98;;
48859;SDS011;34679;51.436;-2.518;2022-10-31T15:12:52;7.25;;;1.48;;
48859;SDS011;34679;51.436;-2.518;2022-10-31T15:15:25;6.32;;;1.30;;
48859;SDS011;34679;51.436;-2.518;2022-10-31T15:17:58;10.95;;;1.30;;
48859;SDS011;34679;51.436;-2.518;2022-10-31T15:20:26;9.07;;;1.65;;
48859;SDS011;34679;51.436;-2.518;2022-10-31T15:22:57;6.43;;;1.10;;
48859;SDS011;34679;51.436;-2.518;2022-10-31T15:25:25;5.40;;;1.40;;
48859;SDS011;34679;51.436;-2.518;2022-10-31T15:27:55;10.57;;;1.52;;
48859;SDS011;34679;51.436;-2.518;2022-10-31T15:30:21;9.65;;;1.45;;
48859;SDS011;34679;51.436;-2.518;2022-10-31T15:32:49;8.20;;;1.73;;
48859;SDS011;34679;51.436;-2.518;2022-10-31T15:35:28;9.43;;;1.90;;
48859;SDS011;34679;51.436;-2.518;2022-10-31T15:37:58;7.05;;;1.48;;
48859;SDS011;34679;51.436;-2.518;2022-10-31T15:40:26;8.50;;;1.42;;
48859;SDS011;34679;51.436;-2.518;2022-10-31T15:45:22;7.05;;;1.73;;
48859;SDS011;34679;51.436;-2.518;2022-10-31T15:47:56;6.20;;;1.83;;
48859;SDS011;34679;51.436;-2.518;2022-10-31T15:50:29;6.57;;;1.70;;
48859;SDS011;34679;51.436;-2.518;2022-10-31T15:53:00;8.30;;;2.22;;
48859;SDS011;34679;51.436;-2.518;2022-10-31T16:00:37;8.05;;;2.70;;
48859;SDS011;34679;51.436;-2.518;2022-10-31T16:05:36;10.30;;;2.17;;
48859;SDS011;34679;51.436;-2.518;2022-10-31T16:10:58;7.95;;;2.08;;
48859;SDS011;34679;51.436;-2.518;2022-10-31T16:13:36;10.30;;;2.05;;
48859;SDS011;34679;51.436;-2.518;2022-10-31T16:16:14;14.23;;;1.90;;
48859;SDS011;34679;51.436;-2.518;2022-10-31T16:18:41;9.00;;;1.70;;
48859;SDS011;34679;51.436;-2.518;2022-10-31T16:21:08;9.82;;;1.80;;
48859;SDS011;34679;51.436;-2.518;2022-10-31T16:23:35;4.65;;;1.50;;
48859;SDS011;34679;51.436;-2.518;2022-10-31T16:26:06;4.57;;;1.73;;
48859;SDS011;34679;51.436;-2.518;2022-10-31T16:28:33;7.93;;;1.88;;
48859;SDS011;34679;51.436;-2.518;2022-10-31T16:31:00;11.90;;;2.03;;
48859;SDS011;34679;51.436;-2.518;2022-10-31T16:33:36;3.67;;;1.38;;
48859;SDS011;34679;51.436;-2.518;2022-10-31T16:38:53;5.03;;;1.42;;
48859;SDS011;34679;51.436;-2.518;2022-10-31T16:41:19;9.20;;;1.88;;
48859;SDS011;34679;51.436;-2.518;2022-10-31T16:43:45;13.10;;;6.65;;
48859;SDS011;34679;51.436;-2.518;2022-10-31T16:46:14;10.40;;;6.75;;
48859;SDS011;34679;51.436;-2.518;2022-10-31T16:48:43;9.95;;;4.07;;
48859;SDS011;34679;51.436;-2.518;2022-10-31T16:51:09;6.68;;;3.20;;
48859;SDS011;34679;51.436;-2.518;2022-10-31T16:53:34;12.00;;;2.67;;
48859;SDS011;34679;51.436;-2.518;2022-10-31T16:56:02;10.25;;;2.30;;
48859;SDS011;34679;51.436;-2.518;2022-10-31T16:58:29;5.68;;;1.85;;
48859;SDS011;34679;51.436;-2.518;2022-10-31T17:00:58;3.40;;;1.50;;
48859;SDS011;34679;51.436;-2.518;2022-10-31T17:03:24;3.97;;;1.48;;
48859;SDS011;34679;51.436;-2.518;2022-10-31T17:05:52;6.72;;;1.45;;
48859;SDS011;34679;51.436;-2.518;2022-10-31T17:08:20;3.08;;;1.65;;
48859;SDS011;34679;51.436;-2.518;2022-10-31T17:10:53;8.02;;;1.40;;
48859;SDS011;34679;51.436;-2.518;2022-10-31T17:13:21;3.33;;;1.23;;
48859;SDS011;34679;51.436;-2.518;2022-10-31T17:15:51;7.53;;;1.70;;
48859;SDS011;34679;51.436;-2.518;2022-10-31T17:18:19;3.83;;;1.77;;
48859;SDS011;34679;51.436;-2.518;2022-10-31T17:20:45;6.85;;;1.70;;
48859;SDS011;34679;51.436;-2.518;2022-10-31T17:23:12;5.65;;;1.70;;
48859;SDS011;34679;51.436;-2.518;2022-10-31T17:25:40;3.85;;;1.63;;
48859;SDS011;34679;51.436;-2.518;2022-10-31T17:28:07;5.72;;;1.80;;
48859;SDS011;34679;51.436;-2.518;2022-10-31T17:30:37;9.15;;;2.40;;
48859;SDS011;34679;51.436;-2.518;2022-10-31T17:33:03;6.05;;;2.03;;